createdAt,value
2022-12-18T08:31:19.459Z,11.10
2022-12-18T08:33:24.897Z,13.75
2022-12-18T08:35:35.844Z,11.35
2022-12-18T08:37:42.506Z,11.50
2022-12-18T08:39:47.951Z,11.50
2022-12-18T08:42:09.896Z,11.40
2022-12-18T08:44:28.129Z,12.65
2022-12-18T08:46:41.934Z,12.13
2022-12-18T08:48:47.588Z,12.40
2022-12-18T08:50:59.110Z,10.98
2022-12-18T08:53:05.682Z,11.90
2022-12-18T08:55:13.325Z,12.10
2022-12-18T08:57:18.506Z,12.25
2022-12-18T08:59:24.688Z,11.15
2022-12-18T09:01:30.073Z,10.70
2022-12-18T09:03:39.389Z,11.90
2022-12-18T09:05:45.189Z,11.65
2022-12-18T09:07:50.498Z,10.82
2022-12-18T09:09:56.384Z,11.13
2022-12-18T09:12:01.664Z,10.77
2022-12-18T09:14:07.318Z,11.98
2022-12-18T09:16:12.652Z,11.18
2022-12-18T09:18:19.907Z,11.48
2022-12-18T09:20:29.338Z,10.90
2022-12-18T09:22:35.282Z,11.75
2022-12-18T09:24:40.501Z,11.38
2022-12-18T09:26:47.499Z,11.65
2022-12-18T09:28:54.362Z,12.73
2022-12-18T09:31:00.313Z,11.60
2022-12-18T09:33:05.565Z,12.80
2022-12-18T09:35:12.522Z,13.73
2022-12-18T09:37:21.142Z,11.63
2022-12-18T09:39:27.172Z,12.15
2022-12-18T09:41:48.376Z,11.05
2022-12-18T09:43:59.430Z,13.60
2022-12-18T09:46:11.770Z,13.25
2022-12-18T09:48:25.831Z,10.35
2022-12-18T09:50:37.983Z,12.35
2022-12-18T09:52:53.381Z,13.32
2022-12-18T09:55:05.396Z,11.68
2022-12-18T09:57:17.161Z,11.82
2022-12-18T09:59:30.143Z,10.48
2022-12-18T10:01:43.909Z,10.50
2022-12-18T10:03:49.622Z,10.25
2022-12-18T10:06:08.975Z,11.63
2022-12-18T10:08:27.978Z,12.48
2022-12-18T10:10:44.778Z,10.65
2022-12-18T10:13:06.817Z,11.68
2022-12-18T10:15:28.199Z,11.05
2022-12-18T10:17:47.065Z,11.38
2022-12-18T10:20:03.345Z,12.18
2022-12-18T10:22:38.103Z,10.88
2022-12-18T10:24:56.895Z,9.85
2022-12-18T10:27:17.790Z,10.68
2022-12-18T10:29:23.735Z,11.68
2022-12-18T10:31:29.582Z,9.85
2022-12-18T10:33:37.969Z,10.90
2022-12-18T10:35:46.228Z,10.82
2022-12-18T10:38:10.941Z,10.40
2022-12-18T10:40:22.810Z,10.25
2022-12-18T10:42:28.562Z,10.23
2022-12-18T10:44:33.845Z,11.23
2022-12-18T10:46:39.411Z,11.13
2022-12-18T10:48:56.761Z,11.02
2022-12-18T10:51:12.725Z,11.82
2022-12-18T10:53:26.427Z,10.85
2022-12-18T10:55:39.657Z,10.63
2022-12-18T10:57:45.355Z,10.90
2022-12-18T10:59:57.599Z,9.30
2022-12-18T11:02:03.122Z,11.32
2022-12-18T11:04:13.496Z,10.68
2022-12-18T11:06:22.809Z,11.50
2022-12-18T11:08:28.247Z,11.80
2022-12-18T11:10:41.938Z,11.38
2022-12-18T11:12:47.762Z,10.98
2022-12-18T11:14:57.195Z,10.55
2022-12-18T11:19:40.954Z,12.20
2022-12-18T11:21:47.010Z,11.15
2022-12-18T11:23:55.834Z,11.93
2022-12-18T11:26:07.937Z,11.18
2022-12-18T11:28:42.195Z,12.68
2022-12-18T11:30:47.960Z,12.30
2022-12-18T11:32:57.070Z,13.95
2022-12-18T11:35:14.687Z,12.80
2022-12-18T11:37:22.537Z,11.85
2022-12-18T11:39:40.167Z,10.93
2022-12-18T11:42:09.734Z,12.02
2022-12-18T11:44:19.561Z,12.48
2022-12-18T11:46:34.848Z,12.40
2022-12-18T11:48:50.513Z,11.77
2022-12-18T11:50:58.736Z,12.73
2022-12-18T11:53:06.520Z,11.70
2022-12-18T11:55:17.835Z,12.20
2022-12-18T11:57:39.334Z,13.18
2022-12-18T11:59:59.609Z,12.13
2022-12-18T12:02:33.345Z,12.57
2022-12-18T12:04:55.777Z,11.25
2022-12-18T12:07:19.481Z,12.38
2022-12-18T12:09:38.479Z,13.15
2022-12-18T12:12:00.115Z,11.52
2022-12-18T12:14:32.436Z,9.60
2022-12-18T12:16:50.441Z,10.75
2022-12-18T12:19:14.234Z,10.02
2022-12-18T12:21:30.343Z,13.80
2022-12-18T12:23:47.776Z,12.38
2022-12-18T12:26:05.263Z,11.63
2022-12-18T12:28:26.376Z,11.30
2022-12-18T12:30:52.354Z,11.18
2022-12-18T12:33:20.881Z,11.55
2022-12-18T12:35:39.613Z,10.05
2022-12-18T12:37:59.920Z,10.77
2022-12-18T12:40:40.811Z,10.05
2022-12-18T12:42:54.954Z,9.52
2022-12-18T12:45:08.714Z,10.40
2022-12-18T12:47:24.700Z,10.70
2022-12-18T12:52:10.080Z,11.18
2022-12-18T12:54:25.240Z,10.07
2022-12-18T12:56:43.573Z,10.48
2022-12-18T12:59:02.391Z,10.38
2022-12-18T13:01:26.850Z,11.85
2022-12-18T13:03:52.526Z,11.57
2022-12-18T13:06:04.668Z,12.35
2022-12-18T13:08:14.062Z,10.95
2022-12-18T13:10:40.636Z,11.93
2022-12-18T13:12:58.422Z,12.07
2022-12-18T13:15:24.276Z,10.82
2022-12-18T13:17:34.904Z,11.27
2022-12-18T13:19:43.065Z,12.38
2022-12-18T13:21:58.853Z,12.23
2022-12-18T13:24:28.401Z,11.13
2022-12-18T13:26:36.952Z,10.73
2022-12-18T13:28:57.540Z,11.40
2022-12-18T13:31:04.092Z,12.40
2022-12-18T13:34:24.995Z,11.13
2022-12-18T13:36:31.088Z,10.55
2022-12-18T13:38:41.719Z,9.82
2022-12-18T13:41:02.605Z,10.65
2022-12-18T13:43:41.739Z,9.77
2022-12-18T13:45:51.711Z,10.38
2022-12-18T13:47:57.664Z,10.40
2022-12-18T13:50:13.113Z,10.13
2022-12-18T13:52:29.026Z,8.65
2022-12-18T13:54:40.081Z,9.63
2022-12-18T13:56:50.283Z,9.68
2022-12-18T13:59:24.814Z,10.45
2022-12-18T14:01:31.236Z,9.38
2022-12-18T14:03:36.919Z,8.43
2022-12-18T14:05:45.274Z,9.05
2022-12-18T14:07:53.504Z,9.23
2022-12-18T14:10:33.576Z,9.48
2022-12-18T14:12:46.517Z,9.60
2022-12-18T14:14:56.768Z,9.85
2022-12-18T14:17:03.551Z,10.15
2022-12-18T14:19:20.532Z,10.95
2022-12-18T14:21:30.424Z,9.02
2022-12-18T14:23:42.571Z,10.63
2022-12-18T14:25:51.070Z,12.18
2022-12-18T14:28:07.320Z,9.88
2022-12-18T14:30:30.146Z,9.40
2022-12-18T14:32:35.642Z,10.02
2022-12-18T14:34:41.194Z,11.40
2022-12-18T14:36:57.237Z,10.00
2022-12-18T14:39:05.061Z,10.25
2022-12-18T14:41:17.478Z,10.27
2022-12-18T14:43:22.990Z,10.25
2022-12-18T14:45:43.381Z,9.73
2022-12-18T14:47:48.781Z,9.95
2022-12-18T14:49:54.051Z,9.68
2022-12-18T14:52:02.056Z,10.32
2022-12-18T14:54:21.690Z,9.75
2022-12-18T14:56:30.872Z,9.32
2022-12-18T14:58:36.768Z,9.93
2022-12-18T15:00:46.421Z,10.00
2022-12-18T15:02:59.046Z,11.05
2022-12-18T15:05:12.928Z,9.80
2022-12-18T15:07:22.880Z,9.15
2022-12-18T15:09:31.193Z,10.13
2022-12-18T15:11:48.039Z,10.70
2022-12-18T15:13:53.376Z,10.13
2022-12-18T15:16:01.367Z,10.63
2022-12-18T15:18:16.338Z,10.05
2022-12-18T15:20:22.327Z,10.88
2022-12-18T15:22:32.507Z,10.00
2022-12-18T15:24:44.502Z,9.77
2022-12-18T15:26:50.139Z,10.63
2022-12-18T15:28:59.521Z,10.07
2022-12-18T15:31:24.280Z,10.73
2022-12-18T15:33:35.734Z,10.25
2022-12-18T15:35:45.320Z,11.30
2022-12-18T15:37:53.660Z,10.48
2022-12-18T15:40:01.631Z,11.18
2022-12-18T15:42:19.898Z,11.23
2022-12-18T15:44:28.467Z,11.57
2022-12-18T15:46:33.933Z,10.27
2022-12-18T15:48:44.242Z,10.98
2022-12-18T15:50:49.754Z,12.02
2022-12-18T15:52:58.548Z,11.25
2022-12-18T15:55:19.911Z,12.38
2022-12-18T15:57:27.955Z,11.73
2022-12-18T15:59:33.266Z,13.27
2022-12-18T16:01:42.413Z,11.70
2022-12-18T16:03:48.137Z,11.13
2022-12-18T16:05:53.518Z,10.70
2022-12-18T16:07:59.896Z,11.82
2022-12-18T16:10:08.616Z,12.07
2022-12-18T16:12:22.358Z,12.65
2022-12-18T16:14:30.348Z,12.98
2022-12-18T16:16:36.504Z,13.07
2022-12-18T16:18:42.586Z,13.73
2022-12-18T16:20:47.953Z,14.02
2022-12-18T16:22:54.394Z,12.52
2022-12-18T16:25:01.196Z,12.60
2022-12-18T16:27:09.739Z,13.25
2022-12-18T16:29:15.298Z,14.07
2022-12-18T16:31:20.625Z,12.50
2022-12-18T16:33:25.910Z,13.13
2022-12-18T16:35:31.851Z,12.82
2022-12-18T16:37:38.002Z,11.05
2022-12-18T16:39:45.412Z,13.05
2022-12-18T16:41:51.686Z,13.23
2022-12-18T16:44:00.329Z,12.15
2022-12-18T16:46:06.278Z,12.77
2022-12-18T16:48:12.080Z,11.98
2022-12-18T16:50:17.665Z,13.52
2022-12-18T16:52:24.889Z,12.55
2022-12-18T16:54:30.763Z,10.93
2022-12-18T16:56:39.406Z,15.32
2022-12-18T16:58:44.684Z,13.15
2022-12-18T17:00:53.282Z,12.85
2022-12-18T17:02:59.245Z,12.45
2022-12-18T17:05:05.149Z,12.18
2022-12-18T17:07:11.067Z,12.85
2022-12-18T17:09:18.521Z,12.73
2022-12-18T17:11:23.839Z,13.75
2022-12-18T17:13:30.513Z,12.85
2022-12-18T17:15:39.570Z,12.32
2022-12-18T17:17:47.604Z,13.90
2022-12-18T17:19:52.984Z,13.43
2022-12-18T17:21:58.622Z,12.57
2022-12-18T17:24:05.297Z,13.68
2022-12-18T17:26:11.071Z,11.77
2022-12-18T17:28:16.615Z,11.73
2022-12-18T17:30:22.120Z,13.50
2022-12-18T17:32:27.979Z,12.80
2022-12-18T17:34:37.313Z,13.88
2022-12-18T17:36:44.108Z,14.48
2022-12-18T17:38:55.444Z,13.48
2022-12-18T17:41:05.223Z,14.95
2022-12-18T17:43:11.898Z,13.63
2022-12-18T17:45:17.410Z,11.73
2022-12-18T17:47:22.945Z,12.75
2022-12-18T17:49:29.385Z,12.95
2022-12-18T17:51:37.233Z,12.73
2022-12-18T17:53:44.002Z,13.98
2022-12-18T17:55:58.239Z,14.57
2022-12-18T17:58:03.576Z,13.88
2022-12-18T18:00:11.470Z,13.80
2022-12-18T18:02:17.319Z,14.38
2022-12-18T18:04:22.942Z,13.43
2022-12-18T18:06:29.399Z,13.85
2022-12-18T18:08:39.963Z,12.20
2022-12-18T18:10:45.336Z,12.65
2022-12-18T18:13:03.024Z,12.43
2022-12-18T18:15:09.758Z,13.90
2022-12-18T18:17:15.504Z,13.93
2022-12-18T18:19:24.364Z,15.05
2022-12-18T18:21:31.075Z,14.63
2022-12-18T18:23:39.662Z,16.15
2022-12-18T18:25:46.923Z,13.68
2022-12-18T18:27:52.614Z,14.10
2022-12-18T18:29:57.873Z,13.32
2022-12-18T18:32:03.278Z,13.07
2022-12-18T18:34:08.679Z,14.05
2022-12-18T18:36:15.145Z,12.60
2022-12-18T18:38:20.613Z,14.15
2022-12-18T18:40:28.535Z,15.18
2022-12-18T18:42:34.032Z,15.35
2022-12-18T18:44:42.281Z,16.23
2022-12-18T18:46:53.801Z,29.63
2022-12-18T18:49:00.173Z,31.33
2022-12-18T18:51:09.562Z,24.60
2022-12-18T18:53:16.644Z,20.40
2022-12-18T18:55:25.503Z,15.15
2022-12-18T18:57:33.855Z,15.65
2022-12-18T18:59:39.162Z,14.10
2022-12-18T19:01:45.092Z,14.93
2022-12-18T19:03:51.785Z,14.27
2022-12-18T19:05:59.993Z,13.55
2022-12-18T19:08:05.380Z,15.75
2022-12-18T19:10:12.889Z,16.83
2022-12-18T19:12:30.675Z,15.00
2022-12-18T19:14:38.584Z,13.65
2022-12-18T19:16:45.605Z,16.48
2022-12-18T19:18:54.973Z,17.33
2022-12-18T19:21:07.055Z,15.80
2022-12-18T19:23:13.251Z,16.63
2022-12-18T19:25:18.910Z,17.63
2022-12-18T19:27:24.535Z,15.50
2022-12-18T19:29:29.794Z,13.98
2022-12-18T19:31:38.827Z,14.20
2022-12-18T19:33:46.974Z,15.10
2022-12-18T19:35:52.573Z,13.27
2022-12-18T19:37:58.111Z,13.38
2022-12-18T19:40:09.163Z,14.65
2022-12-18T19:42:24.599Z,16.52
2022-12-18T19:44:31.954Z,15.43
2022-12-18T19:46:42.044Z,16.20
2022-12-18T19:48:48.203Z,16.17
2022-12-18T19:50:53.509Z,15.90
2022-12-18T19:52:59.144Z,14.45
2022-12-18T19:55:04.728Z,13.18
2022-12-18T19:57:11.626Z,13.88
2022-12-18T19:59:17.305Z,12.50
2022-12-18T20:01:25.822Z,11.43
2022-12-18T20:03:34.174Z,13.65
2022-12-18T20:05:39.766Z,14.68
2022-12-18T20:07:45.212Z,14.73
2022-12-18T20:09:57.069Z,13.20
2022-12-18T20:12:07.623Z,13.15
2022-12-18T20:14:13.654Z,15.10
2022-12-18T20:16:19.549Z,14.27
2022-12-18T20:18:25.770Z,13.80
2022-12-18T20:20:33.755Z,14.98
2022-12-18T20:22:39.479Z,13.90
2022-12-18T20:24:45.056Z,13.93
2022-12-18T20:26:52.642Z,14.30
2022-12-18T20:28:58.971Z,15.50
2022-12-18T20:31:06.566Z,15.57
2022-12-18T20:33:11.969Z,15.15
2022-12-18T20:35:17.375Z,14.05
2022-12-18T20:37:25.859Z,12.80
2022-12-18T20:39:32.585Z,14.43
2022-12-18T20:41:39.291Z,14.27
2022-12-18T20:43:45.634Z,14.60
2022-12-18T20:45:51.233Z,14.55
2022-12-18T20:47:57.400Z,14.77
2022-12-18T20:50:02.893Z,14.50
2022-12-18T20:52:09.347Z,14.40
2022-12-18T20:54:17.406Z,15.95
2022-12-18T20:56:26.774Z,17.25
2022-12-18T20:58:33.886Z,19.05
2022-12-18T21:00:39.251Z,21.77
2022-12-18T21:02:44.660Z,20.05
2022-12-18T21:04:50.221Z,19.45
2022-12-18T21:07:02.407Z,20.02
2022-12-18T21:09:08.867Z,19.90
2022-12-18T21:11:42.383Z,17.38
2022-12-18T21:13:47.672Z,19.02
2022-12-18T21:15:59.515Z,16.17
2022-12-18T21:18:05.475Z,15.27
2022-12-18T21:20:17.591Z,15.07
2022-12-18T21:22:23.942Z,14.88
2022-12-18T21:24:32.487Z,13.65
2022-12-18T21:26:45.752Z,16.17
2022-12-18T21:28:57.211Z,14.65
2022-12-18T21:31:02.628Z,15.07
2022-12-18T21:33:08.261Z,15.88
2022-12-18T21:35:13.698Z,16.77
2022-12-18T21:37:19.131Z,13.93
2022-12-18T21:39:25.145Z,15.13
2022-12-18T21:41:49.855Z,14.18
2022-12-18T21:44:09.467Z,14.95
2022-12-18T21:46:14.745Z,12.82
2022-12-18T21:48:20.128Z,13.52
2022-12-18T21:50:25.448Z,13.65
2022-12-18T21:52:32.072Z,12.15
2022-12-18T21:54:38.061Z,13.38
2022-12-18T21:56:52.051Z,13.57
2022-12-18T21:59:00.005Z,14.13
2022-12-18T22:01:05.543Z,13.75
2022-12-18T22:03:18.195Z,14.77
2022-12-18T22:05:24.993Z,12.60
2022-12-18T22:07:31.783Z,13.63
2022-12-18T22:09:37.747Z,14.65
2022-12-18T22:11:43.370Z,14.48
2022-12-18T22:13:48.675Z,13.45
2022-12-18T22:15:56.663Z,13.77
2022-12-18T22:18:02.172Z,14.27
2022-12-18T22:20:09.363Z,14.20
2022-12-18T22:22:14.705Z,14.57
2022-12-18T22:24:22.794Z,13.52
2022-12-18T22:26:35.045Z,13.77
2022-12-18T22:28:55.678Z,14.35
2022-12-18T22:31:04.018Z,15.23
2022-12-18T22:33:09.474Z,13.55
2022-12-18T22:35:16.264Z,13.45
2022-12-18T22:37:21.952Z,15.60
2022-12-18T22:39:30.533Z,15.20
2022-12-18T22:41:36.199Z,14.40
2022-12-18T22:43:41.481Z,14.95
2022-12-18T22:45:47.453Z,13.77
2022-12-18T22:47:55.414Z,16.42
2022-12-18T22:50:01.001Z,14.48
2022-12-18T22:52:07.010Z,14.60
2022-12-18T22:54:13.044Z,14.63
2022-12-18T22:56:21.254Z,14.63
2022-12-18T22:58:26.710Z,13.63
2022-12-18T23:00:32.289Z,14.60
2022-12-18T23:02:37.853Z,14.27
2022-12-18T23:04:45.949Z,13.82
2022-12-18T23:06:51.353Z,13.30
2022-12-18T23:08:59.869Z,15.20
2022-12-18T23:11:05.261Z,14.43
2022-12-18T23:13:11.482Z,13.77
2022-12-18T23:15:17.838Z,12.90
2022-12-18T23:17:25.466Z,14.32
2022-12-18T23:19:30.841Z,14.90
2022-12-18T23:21:39.337Z,13.27
2022-12-18T23:23:45.286Z,12.73
2022-12-18T23:25:50.813Z,12.82
2022-12-18T23:27:56.135Z,13.45
2022-12-18T23:30:01.387Z,13.25
2022-12-18T23:32:07.058Z,12.52
2022-12-18T23:34:17.943Z,11.90
2022-12-18T23:36:24.081Z,12.63
2022-12-18T23:38:33.478Z,13.25
2022-12-18T23:40:38.766Z,13.43
2022-12-18T23:42:44.157Z,13.30
2022-12-18T23:44:49.475Z,13.05
2022-12-18T23:46:55.295Z,14.57
2022-12-18T23:49:02.013Z,13.85
2022-12-18T23:51:10.422Z,13.25
2022-12-18T23:53:16.068Z,14.40
2022-12-18T23:55:24.144Z,14.05
2022-12-18T23:57:29.954Z,13.55
2022-12-18T23:59:35.497Z,13.45
